createdAt,value
2019-03-01T00:01:09.957Z,26.13
2019-03-01T00:03:39.462Z,23.20
2019-03-01T00:06:07.431Z,26.57
2019-03-01T00:08:39.424Z,20.20
2019-03-01T00:11:09.422Z,20.87
2019-03-01T00:13:37.431Z,29.33
2019-03-01T00:16:07.237Z,21.03
2019-03-01T00:18:36.916Z,23.87
2019-03-01T00:21:06.765Z,27.47
2019-03-01T00:23:36.796Z,25.17
2019-03-01T00:26:06.630Z,21.97
2019-03-01T00:28:36.466Z,32.87
2019-03-01T00:31:06.204Z,32.63
2019-03-01T00:33:36.195Z,36.73
2019-03-01T00:36:06.214Z,31.53
2019-03-01T00:38:36.023Z,25.27
2019-03-01T00:41:05.826Z,11.43
2019-03-01T00:43:35.624Z,18.87
2019-03-01T00:46:04.238Z,30.87
2019-03-01T00:48:32.709Z,19.50
2019-03-01T00:51:01.028Z,26.57
2019-03-01T00:53:29.335Z,21.90
2019-03-01T00:55:57.759Z,15.17
2019-03-01T00:58:26.089Z,13.20
2019-03-01T01:00:54.474Z,24.43
2019-03-01T01:03:22.867Z,22.03
2019-03-01T01:05:51.282Z,27.20
2019-03-01T01:08:19.584Z,25.47
2019-03-01T01:10:47.769Z,21.30
2019-03-01T01:13:16.076Z,25.97
2019-03-01T01:15:44.450Z,26.80
2019-03-01T01:18:12.820Z,10.63
2019-03-01T01:20:41.273Z,21.03
2019-03-01T01:23:09.647Z,24.53
2019-03-01T01:25:38.029Z,20.17
2019-03-01T01:28:06.406Z,21.73
2019-03-01T01:30:34.800Z,21.17
2019-03-01T01:33:03.236Z,19.63
2019-03-01T01:35:31.652Z,24.80
2019-03-01T01:37:59.867Z,16.77
2019-03-01T01:40:28.261Z,25.17
2019-03-01T01:42:56.586Z,20.83
2019-03-01T01:45:24.945Z,21.97
2019-03-01T01:47:53.349Z,25.93
2019-03-01T01:50:21.746Z,23.50
2019-03-01T01:52:50.094Z,26.40
2019-03-01T01:55:18.462Z,22.63
2019-03-01T01:57:46.905Z,20.40
2019-03-01T02:00:15.257Z,19.03
2019-03-01T02:02:43.530Z,26.03
2019-03-01T02:05:11.866Z,19.80
2019-03-01T02:07:40.231Z,21.37
2019-03-01T02:10:09.767Z,13.47
2019-03-01T02:12:38.086Z,24.40
2019-03-01T02:15:07.977Z,13.30
2019-03-01T02:17:36.286Z,17.53
2019-03-01T02:20:06.186Z,18.00
2019-03-01T02:22:34.403Z,27.50
2019-03-01T02:25:02.714Z,28.57
2019-03-01T02:27:31.163Z,18.80
2019-03-01T02:29:59.409Z,16.53
2019-03-01T02:32:29.281Z,21.53
2019-03-01T02:34:57.601Z,13.77
2019-03-01T02:37:25.924Z,17.50
2019-03-01T02:39:54.197Z,12.00
2019-03-01T02:42:23.565Z,11.40
2019-03-01T02:44:51.775Z,16.30
2019-03-01T02:47:20.077Z,20.57
2019-03-01T02:49:48.549Z,25.63
2019-03-01T02:52:16.980Z,22.37
2019-03-01T02:54:45.203Z,28.63
2019-03-01T02:57:13.595Z,17.47
2019-03-01T02:59:41.947Z,16.37
2019-03-01T03:02:10.433Z,28.57
2019-03-01T03:04:38.850Z,30.37
2019-03-01T03:07:09.261Z,17.37
2019-03-01T03:09:37.718Z,13.67
2019-03-01T03:12:06.016Z,29.77
2019-03-01T03:14:34.374Z,20.17
2019-03-01T03:17:03.249Z,12.80
2019-03-01T03:19:31.763Z,18.17
2019-03-01T03:22:00.087Z,18.73
2019-03-01T03:24:28.508Z,22.30
2019-03-01T03:26:56.991Z,21.63
2019-03-01T03:29:25.484Z,22.07
2019-03-01T03:31:53.770Z,22.47
2019-03-01T03:34:22.134Z,22.97
2019-03-01T03:36:50.506Z,15.80
2019-03-01T03:39:18.909Z,23.80
2019-03-01T03:41:47.583Z,27.53
2019-03-01T03:44:15.981Z,22.83
2019-03-01T03:46:44.334Z,22.27
2019-03-01T03:49:12.674Z,19.07
2019-03-01T03:51:40.992Z,9.27
2019-03-01T03:54:09.335Z,26.80
2019-03-01T03:56:37.706Z,18.63
2019-03-01T03:59:06.017Z,22.60
2019-03-01T04:01:34.423Z,14.20
2019-03-01T04:04:02.890Z,22.97
2019-03-01T04:06:31.294Z,23.37
2019-03-01T04:08:59.646Z,27.53
2019-03-01T04:11:28.057Z,27.07
2019-03-01T04:13:56.344Z,16.00
2019-03-01T04:16:24.650Z,22.10
2019-03-01T04:18:52.927Z,18.77
2019-03-01T04:21:21.262Z,18.87
2019-03-01T04:23:49.820Z,21.23
2019-03-01T04:26:18.086Z,23.90
2019-03-01T04:28:46.354Z,19.10
2019-03-01T04:31:14.645Z,18.83
2019-03-01T04:33:42.912Z,14.93
2019-03-01T04:36:11.252Z,19.00
2019-03-01T04:38:39.563Z,16.80
2019-03-01T04:41:07.968Z,14.10
2019-03-01T04:43:36.462Z,24.20
2019-03-01T04:46:04.806Z,20.83
2019-03-01T04:48:33.024Z,20.47
2019-03-01T04:51:01.350Z,20.73
2019-03-01T04:53:29.875Z,16.83
2019-03-01T04:55:58.245Z,9.23
2019-03-01T04:58:26.623Z,10.70
2019-03-01T05:00:54.989Z,15.23
2019-03-01T05:03:23.288Z,24.43
2019-03-01T05:05:52.170Z,20.67
2019-03-01T05:08:20.549Z,21.27
2019-03-01T05:10:48.769Z,23.30
2019-03-01T05:13:17.422Z,15.20
2019-03-01T05:15:45.684Z,14.90
2019-03-01T05:18:14.067Z,16.40
2019-03-01T05:20:42.447Z,17.00
2019-03-01T05:23:10.846Z,15.07
2019-03-01T05:25:39.226Z,21.60
2019-03-01T05:28:07.582Z,19.27
2019-03-01T05:30:35.944Z,11.83
2019-03-01T05:33:04.347Z,15.80
2019-03-01T05:35:32.721Z,20.47
2019-03-01T05:38:01.086Z,18.10
2019-03-01T05:40:29.535Z,17.30
2019-03-01T05:42:57.987Z,24.43
2019-03-01T05:45:27.187Z,24.73
2019-03-01T05:47:55.454Z,21.17
2019-03-01T05:50:23.816Z,17.27
2019-03-01T05:52:52.345Z,18.33
2019-03-01T05:55:20.627Z,23.23
2019-03-01T05:57:50.446Z,20.13
2019-03-01T06:00:19.002Z,20.43
2019-03-01T06:02:48.720Z,13.73
2019-03-01T06:05:17.069Z,20.83
2019-03-01T06:07:48.319Z,20.60
2019-03-01T06:10:18.172Z,24.80
2019-03-01T06:12:48.217Z,19.70
2019-03-01T06:15:19.005Z,15.87
2019-03-01T06:17:48.690Z,16.37
2019-03-01T06:20:18.570Z,17.67
2019-03-01T06:22:48.353Z,16.73
2019-03-01T06:25:18.183Z,19.67
2019-03-01T06:27:46.148Z,25.57
2019-03-01T06:30:16.155Z,19.47
2019-03-01T06:32:46.135Z,23.53
2019-03-01T06:35:15.871Z,9.00
2019-03-01T06:37:45.615Z,19.07
2019-03-01T06:40:15.107Z,19.67
2019-03-01T06:42:44.848Z,18.17
2019-03-01T06:45:14.789Z,20.13
2019-03-01T06:47:45.272Z,17.23
2019-03-01T06:50:15.248Z,20.50
2019-03-01T06:52:43.664Z,24.37
2019-03-01T06:55:13.571Z,25.77
2019-03-01T06:57:42.131Z,15.73
2019-03-01T07:00:11.331Z,13.80
2019-03-01T07:02:41.210Z,22.10
2019-03-01T07:05:10.157Z,21.70
2019-03-01T07:07:38.510Z,14.67
2019-03-01T07:10:08.223Z,21.53
2019-03-01T07:12:36.588Z,19.83
2019-03-01T07:15:08.615Z,17.93
2019-03-01T07:17:35.922Z,17.43
2019-03-01T07:20:05.392Z,19.40
2019-03-01T07:22:33.701Z,24.47
2019-03-01T07:25:02.178Z,18.33
2019-03-01T07:27:30.547Z,18.63
2019-03-01T07:29:59.015Z,22.60
2019-03-01T07:32:27.478Z,21.80
2019-03-01T07:34:55.722Z,23.80
2019-03-01T07:37:24.073Z,25.63
2019-03-01T07:39:52.460Z,20.30
2019-03-01T07:42:20.714Z,19.03
2019-03-01T07:44:49.116Z,15.70
2019-03-01T07:47:17.414Z,21.67
2019-03-01T07:49:45.806Z,16.50
2019-03-01T07:52:14.088Z,18.00
2019-03-01T07:54:42.402Z,19.43
2019-03-01T07:57:11.474Z,19.13
2019-03-01T07:59:40.939Z,14.63
2019-03-01T08:02:09.347Z,15.70
2019-03-01T08:04:37.674Z,14.47
2019-03-01T08:07:06.443Z,19.23
2019-03-01T08:09:36.270Z,17.77
2019-03-01T08:12:07.449Z,19.50
2019-03-01T08:14:34.875Z,17.97
2019-03-01T08:17:03.624Z,14.07
2019-03-01T08:19:32.257Z,17.40
2019-03-01T08:22:00.585Z,12.63
2019-03-01T08:24:29.041Z,17.17
2019-03-01T08:26:57.311Z,17.13
2019-03-01T08:29:25.682Z,12.53
2019-03-01T08:31:55.740Z,13.87
2019-03-01T08:34:23.882Z,17.67
2019-03-01T08:36:52.352Z,20.50
2019-03-01T08:39:20.614Z,19.53
2019-03-01T08:41:48.864Z,15.37
2019-03-01T08:44:19.424Z,13.90
2019-03-01T08:46:47.626Z,18.30
2019-03-01T08:49:16.126Z,18.00
2019-03-01T08:51:44.607Z,10.60
2019-03-01T08:54:13.217Z,15.90
2019-03-01T08:56:41.548Z,17.77
2019-03-01T08:59:10.124Z,13.93
2019-03-01T09:01:41.622Z,15.20
2019-03-01T09:04:09.916Z,14.03
2019-03-01T09:06:38.208Z,14.00
2019-03-01T09:09:08.619Z,13.30
2019-03-01T09:11:38.099Z,15.03
2019-03-01T09:14:07.491Z,18.17
2019-03-01T09:16:35.962Z,21.33
2019-03-01T09:19:04.347Z,14.70
2019-03-01T09:21:32.722Z,16.90
2019-03-01T09:24:00.974Z,15.83
2019-03-01T09:26:29.255Z,14.60
2019-03-01T09:28:57.566Z,11.93
2019-03-01T09:31:25.869Z,18.70
2019-03-01T09:33:56.545Z,19.13
2019-03-01T09:36:25.820Z,15.10
2019-03-01T09:38:54.168Z,12.23
2019-03-01T09:41:22.569Z,11.43
2019-03-01T09:43:50.930Z,10.70
2019-03-01T09:46:20.868Z,13.07
2019-03-01T09:48:50.301Z,14.53
2019-03-01T09:51:20.146Z,12.93
2019-03-01T09:53:48.507Z,12.83
2019-03-01T09:56:16.783Z,17.37
2019-03-01T09:58:45.156Z,17.53
2019-03-01T10:01:14.577Z,8.37
2019-03-01T10:03:42.967Z,14.83
2019-03-01T10:06:11.267Z,15.50
2019-03-01T10:08:39.620Z,10.60
2019-03-01T10:11:07.982Z,16.40
2019-03-01T10:13:36.397Z,11.70
2019-03-01T10:16:04.846Z,12.60
2019-03-01T10:18:33.150Z,13.20
2019-03-01T10:21:01.602Z,15.80
2019-03-01T10:23:30.031Z,12.80
2019-03-01T10:25:58.461Z,17.37
2019-03-01T10:28:26.779Z,17.27
2019-03-01T10:30:55.181Z,13.77
2019-03-01T10:33:23.554Z,15.57
2019-03-01T10:35:51.910Z,16.03
2019-03-01T10:38:20.355Z,14.93
2019-03-01T10:40:48.676Z,15.30
2019-03-01T10:43:17.042Z,14.50
2019-03-01T10:45:45.454Z,16.10
2019-03-01T10:48:13.807Z,11.50
2019-03-01T10:50:42.034Z,14.40
2019-03-01T10:53:10.359Z,19.00
2019-03-01T10:55:38.781Z,10.67
2019-03-01T10:58:07.101Z,13.70
2019-03-01T11:00:35.449Z,13.70
2019-03-01T11:03:04.006Z,15.23
2019-03-01T11:05:32.629Z,12.33
2019-03-01T11:08:01.026Z,16.20
2019-03-01T11:10:30.846Z,15.67
2019-03-01T11:12:59.239Z,14.27
2019-03-01T11:15:27.746Z,14.10
2019-03-01T11:17:56.149Z,16.97
2019-03-01T11:20:24.608Z,14.93
2019-03-01T11:22:53.012Z,13.67
2019-03-01T11:25:22.342Z,15.53
2019-03-01T11:27:51.286Z,12.67
2019-03-01T11:30:20.961Z,14.40
2019-03-01T11:32:49.273Z,14.17
2019-03-01T11:35:17.662Z,13.30
2019-03-01T11:37:46.116Z,16.40
2019-03-01T11:40:15.827Z,9.90
2019-03-01T11:42:44.166Z,14.60
2019-03-01T11:45:13.782Z,13.27
2019-03-01T11:47:42.192Z,14.13
2019-03-01T11:50:12.329Z,13.10
2019-03-01T11:52:40.707Z,15.23
2019-03-01T11:55:09.063Z,11.57
2019-03-01T11:57:37.508Z,15.57
2019-03-01T12:00:07.542Z,10.90
2019-03-01T12:02:36.295Z,15.37
2019-03-01T12:05:06.516Z,13.83
2019-03-01T12:07:34.910Z,12.93
2019-03-01T12:10:05.100Z,11.27
2019-03-01T12:12:33.927Z,11.37
2019-03-01T12:15:02.375Z,12.00
2019-03-01T12:17:30.838Z,12.60
2019-03-01T12:19:59.273Z,11.80
2019-03-01T12:22:27.628Z,10.83
2019-03-01T12:24:55.874Z,16.60
2019-03-01T12:27:24.272Z,12.67
2019-03-01T12:29:52.609Z,10.70
2019-03-01T12:32:21.083Z,10.07
2019-03-01T12:34:49.326Z,9.23
2019-03-01T12:37:17.794Z,9.83
2019-03-01T12:39:46.228Z,6.13
2019-03-01T12:42:14.666Z,11.30
2019-03-01T12:44:43.066Z,12.10
2019-03-01T12:47:11.447Z,5.80
2019-03-01T12:49:39.842Z,8.43
2019-03-01T12:52:08.184Z,10.53
2019-03-01T12:54:36.627Z,7.50
2019-03-01T12:57:04.995Z,8.27
2019-03-01T12:59:34.034Z,8.20
2019-03-01T13:02:02.409Z,8.13
2019-03-01T13:04:30.877Z,6.60
2019-03-01T13:06:59.278Z,8.40
2019-03-01T13:09:28.822Z,8.27
2019-03-01T13:11:57.187Z,8.53
2019-03-01T13:14:25.629Z,7.70
2019-03-01T13:16:54.054Z,8.13
2019-03-01T13:19:23.313Z,7.40
2019-03-01T13:21:52.446Z,6.53
2019-03-01T13:24:20.825Z,8.37
2019-03-01T13:26:49.422Z,6.43
2019-03-01T13:29:19.144Z,6.20
2019-03-01T13:31:49.061Z,9.17
2019-03-01T13:34:17.414Z,8.27
2019-03-01T13:36:45.854Z,8.77
2019-03-01T13:39:14.221Z,9.67
2019-03-01T13:41:42.515Z,11.60
2019-03-01T13:44:10.957Z,6.30
2019-03-01T13:46:39.207Z,5.37
2019-03-01T13:49:11.022Z,9.00
2019-03-01T13:51:39.349Z,10.70
2019-03-01T13:54:08.951Z,11.53
2019-03-01T13:56:37.688Z,8.10
2019-03-01T13:59:06.166Z,8.67
2019-03-01T14:01:34.623Z,5.63
2019-03-01T14:04:03.404Z,6.60
2019-03-01T14:06:32.622Z,8.07
2019-03-01T14:09:00.774Z,8.17
2019-03-01T14:11:30.201Z,7.93
2019-03-01T14:13:58.446Z,7.97
2019-03-01T14:16:26.767Z,6.07
2019-03-01T14:18:55.146Z,7.50
2019-03-01T14:21:23.484Z,9.37
2019-03-01T14:23:51.849Z,4.73
2019-03-01T14:26:20.257Z,5.37
2019-03-01T14:28:49.577Z,8.80
2019-03-01T14:31:18.142Z,8.93
2019-03-01T14:33:46.447Z,8.17
2019-03-01T14:36:14.677Z,8.57
2019-03-01T14:38:43.082Z,8.20
2019-03-01T14:41:11.429Z,5.93
2019-03-01T14:43:39.789Z,9.50
2019-03-01T14:46:08.236Z,9.70
2019-03-01T14:48:37.774Z,5.73
2019-03-01T14:51:07.060Z,7.87
2019-03-01T14:53:36.433Z,10.10
2019-03-01T14:56:06.219Z,6.00
2019-03-01T14:58:36.269Z,10.60
2019-03-01T15:01:06.163Z,10.57
2019-03-01T15:03:35.435Z,9.03
2019-03-01T15:06:04.400Z,9.37
2019-03-01T15:08:32.836Z,9.40
2019-03-01T15:11:04.295Z,9.87
2019-03-01T15:13:34.703Z,12.63
2019-03-01T15:16:04.620Z,7.63
2019-03-01T15:18:33.727Z,11.17
2019-03-01T15:21:02.786Z,8.77
2019-03-01T15:23:31.647Z,10.13
2019-03-01T15:25:59.938Z,9.90
2019-03-01T15:28:28.416Z,9.33
2019-03-01T15:30:57.305Z,9.60
2019-03-01T15:33:26.147Z,8.97
2019-03-01T15:35:54.461Z,8.13
2019-03-01T15:38:23.838Z,9.73
2019-03-01T15:40:53.584Z,9.60
2019-03-01T15:43:22.172Z,7.80
2019-03-01T15:45:50.522Z,9.57
2019-03-01T15:48:19.103Z,11.20
2019-03-01T15:50:47.477Z,9.57
2019-03-01T15:53:15.777Z,9.20
2019-03-01T15:55:44.146Z,8.80
2019-03-01T15:58:12.466Z,8.87
2019-03-01T16:00:40.952Z,6.33
2019-03-01T16:03:09.342Z,5.53
2019-03-01T16:05:38.314Z,3.47
2019-03-01T16:08:08.363Z,3.90
2019-03-01T16:10:38.014Z,1.97
2019-03-01T16:13:08.310Z,2.33
2019-03-01T16:15:38.733Z,3.10
2019-03-01T16:18:06.486Z,2.43
2019-03-01T16:20:34.932Z,1.60
2019-03-01T16:23:03.233Z,2.03
2019-03-01T16:25:31.596Z,1.87
2019-03-01T16:28:00.042Z,2.03
2019-03-01T16:30:28.508Z,2.10
2019-03-01T16:32:56.990Z,1.60
2019-03-01T16:35:25.392Z,2.83
2019-03-01T16:37:57.827Z,2.57
2019-03-01T16:40:25.405Z,2.27
2019-03-01T16:42:54.678Z,2.93
2019-03-01T16:45:23.730Z,2.67
2019-03-01T16:47:52.064Z,2.07
2019-03-01T16:50:20.504Z,1.80
2019-03-01T16:52:48.825Z,3.33
2019-03-01T16:55:18.654Z,3.00
2019-03-01T16:57:48.616Z,3.47
2019-03-01T17:00:21.811Z,3.10
2019-03-01T17:02:53.356Z,3.43
2019-03-01T17:05:21.803Z,3.73
2019-03-01T17:07:50.388Z,3.23
2019-03-01T17:10:19.385Z,2.53
2019-03-01T17:12:48.812Z,2.40
2019-03-01T17:15:18.968Z,3.23
2019-03-01T17:17:47.284Z,2.70
2019-03-01T17:20:15.761Z,2.47
2019-03-01T17:22:44.445Z,2.73
2019-03-01T17:25:14.378Z,2.27
2019-03-01T17:27:43.285Z,2.33
2019-03-01T17:30:15.092Z,2.47
2019-03-01T17:32:43.404Z,2.33
2019-03-01T17:35:12.385Z,1.97
2019-03-01T17:37:40.661Z,2.17
2019-03-01T17:40:10.601Z,2.23
2019-03-01T17:42:39.055Z,2.53
2019-03-01T17:45:09.850Z,3.83
2019-03-01T17:47:38.645Z,3.30
2019-03-01T17:50:08.727Z,2.20
2019-03-01T17:52:37.084Z,1.57
2019-03-01T17:55:06.847Z,1.37
2019-03-01T17:57:35.506Z,1.53
2019-03-01T18:00:05.522Z,2.00
2019-03-01T18:02:33.862Z,2.30
2019-03-01T18:05:02.254Z,2.20
2019-03-01T18:07:31.007Z,1.57
2019-03-01T18:09:59.442Z,2.40
2019-03-01T18:12:27.656Z,1.80
2019-03-01T18:14:55.932Z,1.70
2019-03-01T18:17:24.256Z,1.87
2019-03-01T18:19:53.890Z,0.53
2019-03-01T18:22:22.921Z,1.17
2019-03-01T18:24:52.164Z,1.90
2019-03-01T18:27:20.593Z,1.57
2019-03-01T18:29:48.947Z,1.27
2019-03-01T18:32:17.470Z,1.20
2019-03-01T18:34:46.101Z,0.73
2019-03-01T18:37:19.415Z,1.70
2019-03-01T18:39:44.507Z,1.83
2019-03-01T18:42:12.925Z,1.20
2019-03-01T18:44:41.237Z,1.30
2019-03-01T18:47:09.614Z,1.30
2019-03-01T18:49:38.009Z,1.83
2019-03-01T18:52:06.274Z,1.50
2019-03-01T18:54:35.871Z,1.10
2019-03-01T18:57:04.692Z,1.77
2019-03-01T18:59:33.304Z,0.80
2019-03-01T19:02:01.699Z,0.60
2019-03-01T19:04:30.070Z,1.10
2019-03-01T19:06:59.771Z,1.27
2019-03-01T19:09:27.994Z,1.20
2019-03-01T19:11:57.234Z,2.03
2019-03-01T19:14:25.527Z,0.87
2019-03-01T19:16:53.889Z,1.27
2019-03-01T19:19:24.024Z,0.83
2019-03-01T19:21:52.663Z,2.13
2019-03-01T19:24:21.146Z,1.80
2019-03-01T19:26:49.666Z,1.60
2019-03-01T19:29:17.971Z,1.23
2019-03-01T19:31:46.293Z,1.33
2019-03-01T19:34:16.991Z,2.07
2019-03-01T19:36:44.732Z,2.10
2019-03-01T19:39:14.550Z,1.70
2019-03-01T19:41:43.594Z,1.83
2019-03-01T19:44:12.003Z,2.00
2019-03-01T19:46:40.446Z,1.67
2019-03-01T19:49:09.445Z,1.50
2019-03-01T19:51:38.749Z,1.53
2019-03-01T19:54:08.385Z,1.37
2019-03-01T19:56:37.150Z,0.80
2019-03-01T19:59:05.383Z,1.27
2019-03-01T20:01:33.617Z,1.10
2019-03-01T20:04:01.894Z,1.37
2019-03-01T20:06:30.282Z,1.50
2019-03-01T20:09:01.621Z,1.27
2019-03-01T20:11:30.403Z,0.50
2019-03-01T20:13:58.824Z,2.00
2019-03-01T20:16:27.227Z,1.10
2019-03-01T20:18:55.537Z,1.43
2019-03-01T20:21:23.823Z,0.60
2019-03-01T20:23:52.193Z,1.17
2019-03-01T20:26:23.532Z,1.50
2019-03-01T20:28:51.364Z,2.03
2019-03-01T20:31:20.127Z,1.17
2019-03-01T20:33:48.574Z,1.17
2019-03-01T20:36:17.673Z,1.40
2019-03-01T20:38:47.087Z,0.90
2019-03-01T20:41:15.361Z,0.80
2019-03-01T20:43:43.842Z,1.00
2019-03-01T20:46:12.182Z,1.30
2019-03-01T20:48:40.575Z,0.80
2019-03-01T20:51:08.988Z,1.77
2019-03-01T20:53:37.289Z,0.70
2019-03-01T20:56:05.834Z,1.43
2019-03-01T20:58:35.870Z,1.57
2019-03-01T21:01:05.479Z,0.93
2019-03-01T21:03:33.859Z,1.43
2019-03-01T21:06:04.610Z,1.20
2019-03-01T21:08:32.115Z,1.43
2019-03-01T21:11:00.622Z,1.73
2019-03-01T21:13:29.171Z,1.30
2019-03-01T21:15:57.591Z,1.57
2019-03-01T21:18:25.975Z,1.20
2019-03-01T21:20:54.753Z,0.67
2019-03-01T21:23:23.243Z,1.00
2019-03-01T21:25:51.662Z,1.40
2019-03-01T21:28:20.104Z,0.90
2019-03-01T21:30:48.432Z,1.30
2019-03-01T21:33:16.874Z,1.23
2019-03-01T21:35:47.842Z,1.23
2019-03-01T21:38:15.267Z,1.23
2019-03-01T21:40:43.704Z,1.43
2019-03-01T21:43:12.046Z,1.13
2019-03-01T21:45:40.380Z,1.60
2019-03-01T21:48:08.809Z,1.20
2019-03-01T21:50:38.636Z,1.07
2019-03-01T21:53:08.086Z,0.93
2019-03-01T21:55:36.513Z,1.90
2019-03-01T21:58:06.601Z,0.93
2019-03-01T22:00:35.343Z,2.00
2019-03-01T22:03:03.588Z,1.63
2019-03-01T22:05:31.925Z,0.87
2019-03-01T22:08:00.276Z,1.37
2019-03-01T22:10:31.597Z,0.80
2019-03-01T22:13:00.425Z,1.20
2019-03-01T22:15:29.095Z,1.93
2019-03-01T22:17:57.622Z,1.60
2019-03-01T22:20:26.070Z,1.90
2019-03-01T22:22:54.275Z,1.37
2019-03-01T22:25:22.553Z,0.93
2019-03-01T22:27:50.946Z,1.90
2019-03-01T22:30:23.033Z,1.30
2019-03-01T22:32:50.915Z,1.47
2019-03-01T22:35:19.237Z,1.70
2019-03-01T22:37:47.654Z,1.77
2019-03-01T22:40:15.933Z,1.60
2019-03-01T22:42:45.810Z,1.57
2019-03-01T22:45:15.108Z,1.17
2019-03-01T22:47:43.506Z,1.30
2019-03-01T22:50:12.902Z,1.00
2019-03-01T22:52:41.218Z,1.20
2019-03-01T22:55:10.729Z,0.63
2019-03-01T22:57:39.323Z,1.30
2019-03-01T23:00:09.570Z,1.07
2019-03-01T23:02:43.537Z,1.00
2019-03-01T23:05:10.529Z,1.20
2019-03-01T23:07:38.801Z,1.47
2019-03-01T23:10:08.409Z,1.40
2019-03-01T23:12:37.067Z,1.27
2019-03-01T23:15:07.889Z,0.90
2019-03-01T23:17:36.366Z,1.40
2019-03-01T23:20:06.294Z,1.70
2019-03-01T23:22:35.662Z,1.30
2019-03-01T23:25:04.139Z,1.07
2019-03-01T23:27:32.734Z,0.90
2019-03-01T23:30:01.117Z,1.37
2019-03-01T23:32:29.436Z,1.33
2019-03-01T23:34:57.787Z,1.37
2019-03-01T23:37:26.146Z,1.47
2019-03-01T23:39:57.109Z,1.63
2019-03-01T23:42:25.534Z,1.53
2019-03-01T23:44:53.834Z,1.30
2019-03-01T23:47:22.114Z,1.97
2019-03-01T23:49:50.390Z,1.77
2019-03-01T23:52:19.552Z,1.90
2019-03-01T23:54:48.551Z,3.07
2019-03-01T23:57:16.982Z,1.03
2019-03-01T23:59:45.289Z,0.90
